Time;durP1;ratioP1;P1;durP2;ratioP2;P2;SDS_P1;SDS_P2;PMS_P1;PMS_P2;Temp;Humidity;BMP_temperature;BMP_pressure;BME280_temperature;BME280_humidity;BME280_pressure;Samples;Min_cycle;Max_cycle;Signal;HPM_P1;HPM_P2
2022/05/05 00:01:34;;;;;;;11.48;6.10;;;;;;;;;;4126022;84;28601;-74
2022/05/05 00:07:35;;;;;;;11.95;6.35;;;;;;;;;;4124587;84;28585;-74
2022/05/05 00:19:56;;;;;;;9.63;5.87;;;;;;;;;;4117378;85;28559;-75
2022/05/05 00:25:57;;;;;;;12.60;6.10;;;;;;;;;;4127463;84;28587;-75
2022/05/05 00:31:58;;;;;;;13.13;6.92;;;;;;;;;;4078827;84;28566;-76
2022/05/05 00:37:58;;;;;;;10.28;6.28;;;;;;;;;;4115811;85;28525;-77
2022/05/05 00:44:00;;;;;;;11.15;6.10;;;;;;;;;;4105066;84;28583;-77
2022/05/05 00:50:01;;;;;;;10.70;6.10;;;;;;;;;;4093393;86;28582;-77
2022/05/05 00:56:14;;;;;;;12.03;6.33;;;;;;;;;;4046835;85;28533;-77
2022/05/05 01:02:16;;;;;;;11.10;6.45;;;;;;;;;;4048169;85;28539;-77
2022/05/05 01:08:18;;;;;;;12.10;6.70;;;;;;;;;;4031245;85;28541;-77
2022/05/05 01:14:19;;;;;;;11.25;6.83;;;;;;;;;;4070821;85;28542;-76
2022/05/05 01:20:23;;;;;;;10.53;6.10;;;;;;;;;;4042117;85;28588;-76
2022/05/05 01:32:43;;;;;;;9.70;6.53;;;;;;;;;;4049764;86;28540;-75
2022/05/05 01:38:45;;;;;;;11.20;6.12;;;;;;;;;;4081408;85;28524;-75
2022/05/05 01:44:45;;;;;;;12.50;6.17;;;;;;;;;;4047606;86;28531;-76
2022/05/05 01:50:48;;;;;;;9.55;5.25;;;;;;;;;;4036528;86;28647;-77
2022/05/05 01:56:49;;;;;;;10.80;7.05;;;;;;;;;;4017789;87;28541;-77
2022/05/05 02:02:50;;;;;;;10.23;6.65;;;;;;;;;;4078056;84;28530;-75
2022/05/05 02:08:51;;;;;;;10.43;6.85;;;;;;;;;;4111020;85;28521;-76
2022/05/05 02:14:51;;;;;;;10.88;6.37;;;;;;;;;;4134594;84;28505;-76
2022/05/05 02:20:52;;;;;;;14.63;6.85;;;;;;;;;;4132220;84;28570;-76
2022/05/05 02:26:54;;;;;;;10.38;6.03;;;;;;;;;;4133531;84;28664;-76
2022/05/05 02:32:54;;;;;;;9.43;5.78;;;;;;;;;;4120586;84;28542;-77
2022/05/05 02:38:55;;;;;;;11.83;7.17;;;;;;;;;;4136668;84;28593;-77
2022/05/05 02:44:56;;;;;;;10.95;6.35;;;;;;;;;;4134904;84;28530;-76
2022/05/05 02:50:57;;;;;;;10.13;6.22;;;;;;;;;;4094139;85;28599;-76
2022/05/05 02:56:58;;;;;;;12.18;6.80;;;;;;;;;;4087156;85;28706;-76
2022/05/05 03:02:59;;;;;;;9.55;6.67;;;;;;;;;;4101800;87;28566;-76
2022/05/05 03:09:00;;;;;;;9.90;6.20;;;;;;;;;;4106459;85;28511;-76
2022/05/05 03:15:01;;;;;;;9.75;5.78;;;;;;;;;;4109069;85;28578;-76
2022/05/05 03:21:01;;;;;;;10.38;6.08;;;;;;;;;;4100436;85;28519;-76
2022/05/05 03:27:03;;;;;;;12.40;7.12;;;;;;;;;;4104022;85;28546;-76
2022/05/05 03:33:04;;;;;;;11.28;6.70;;;;;;;;;;4102669;85;28535;-76
2022/05/05 03:39:05;;;;;;;12.03;6.83;;;;;;;;;;4090342;85;28530;-76
2022/05/05 03:45:07;;;;;;;9.43;6.75;;;;;;;;;;4095644;85;28598;-75
2022/05/05 03:51:07;;;;;;;9.55;5.97;;;;;;;;;;4109220;85;28580;-77
2022/05/05 03:57:08;;;;;;;11.90;6.87;;;;;;;;;;4144898;84;28521;-77
2022/05/05 04:09:29;;;;;;;19.85;11.50;;;;;;;;;;4151476;84;28801;-76
2022/05/05 04:15:30;;;;;;;18.30;11.03;;;;;;;;;;4143840;84;28600;-76
2022/05/05 04:21:31;;;;;;;17.07;9.85;;;;;;;;;;4125857;84;28591;-76
2022/05/05 04:27:32;;;;;;;18.12;10.50;;;;;;;;;;4153876;84;28486;-77
2022/05/05 04:33:34;;;;;;;15.90;10.43;;;;;;;;;;4153752;84;28566;-76
2022/05/05 04:39:35;;;;;;;14.20;9.13;;;;;;;;;;4146730;84;28582;-76
2022/05/05 04:45:36;;;;;;;16.10;8.73;;;;;;;;;;4146244;84;28610;-77
2022/05/05 04:51:37;;;;;;;13.70;7.75;;;;;;;;;;4132819;84;28550;-76
2022/05/05 04:57:45;;;;;;;13.98;7.80;;;;;;;;;;4138741;84;28522;-77
2022/05/05 05:03:51;;;;;;;16.00;8.33;;;;;;;;;;4146755;84;28538;-77
2022/05/05 05:09:52;;;;;;;15.20;8.43;;;;;;;;;;4136266;84;28541;-75
2022/05/05 05:15:53;;;;;;;15.28;9.15;;;;;;;;;;4147617;84;28556;-75
2022/05/05 05:21:54;;;;;;;17.12;10.43;;;;;;;;;;4144722;84;28524;-74
2022/05/05 05:27:55;;;;;;;15.90;10.15;;;;;;;;;;4136430;84;28569;-78
2022/05/05 05:33:56;;;;;;;16.97;10.15;;;;;;;;;;4137800;84;28663;-77
2022/05/05 05:39:56;;;;;;;20.17;10.18;;;;;;;;;;4135122;84;28559;-77
2022/05/05 05:45:57;;;;;;;15.15;10.13;;;;;;;;;;4146972;84;28578;-77
2022/05/05 05:51:58;;;;;;;16.37;9.28;;;;;;;;;;4139420;85;28549;-77
2022/05/05 05:57:59;;;;;;;17.10;10.28;;;;;;;;;;4152355;84;28544;-77
2022/05/05 06:04:00;;;;;;;18.95;10.65;;;;;;;;;;4127782;85;28550;-77
2022/05/05 06:10:01;;;;;;;18.87;11.57;;;;;;;;;;4125936;85;28529;-77
2022/05/05 06:16:04;;;;;;;20.45;12.85;;;;;;;;;;4135223;85;28521;-76
2022/05/05 06:22:05;;;;;;;24.35;13.08;;;;;;;;;;4125666;84;28488;-76
2022/05/05 06:28:06;;;;;;;23.00;12.10;;;;;;;;;;4109619;85;28535;-77
2022/05/05 06:34:06;;;;;;;24.27;12.95;;;;;;;;;;4124131;84;28546;-75
2022/05/05 06:40:08;;;;;;;20.20;11.75;;;;;;;;;;4124516;84;28585;-74
2022/05/05 06:46:09;;;;;;;17.07;10.80;;;;;;;;;;4117850;84;28507;-75
2022/05/05 06:52:10;;;;;;;20.08;10.50;;;;;;;;;;4111461;85;28537;-71
2022/05/05 06:58:11;;;;;;;18.05;11.05;;;;;;;;;;4125885;85;28544;-71
2022/05/05 07:16:46;;;;;;;19.70;10.65;;;;;;;;;;4089468;85;28558;-72
2022/05/05 07:22:47;;;;;;;15.78;9.30;;;;;;;;;;4124689;84;28620;-72
2022/05/05 07:28:48;;;;;;;14.68;9.05;;;;;;;;;;4126695;85;28502;-72
2022/05/05 07:34:51;;;;;;;14.87;8.65;;;;;;;;;;4112575;84;28551;-72
2022/05/05 07:40:51;;;;;;;16.02;8.80;;;;;;;;;;4113559;84;28592;-79
2022/05/05 07:46:52;;;;;;;17.80;9.25;;;;;;;;;;4102440;85;28507;-79
2022/05/05 07:52:53;;;;;;;14.58;9.28;;;;;;;;;;4139607;84;28589;-77
2022/05/05 07:58:54;;;;;;;16.42;8.13;;;;;;;;;;4134563;84;28525;-78
2022/05/05 08:04:55;;;;;;;12.95;7.53;;;;;;;;;;4136154;84;28560;-78
2022/05/05 08:10:56;;;;;;;6.60;4.75;;;;;;;;;;4142788;84;28548;-77
2022/05/05 08:16:58;;;;;;;8.53;5.60;;;;;;;;;;4147645;84;28568;-78
2022/05/05 08:22:59;;;;;;;9.38;5.78;;;;;;;;;;4142716;84;28581;-78
2022/05/05 08:28:59;;;;;;;8.10;4.67;;;;;;;;;;4147206;84;28512;-78
2022/05/05 08:35:00;;;;;;;7.12;4.78;;;;;;;;;;4144102;84;28512;-78
2022/05/05 08:41:03;;;;;;;6.42;4.65;;;;;;;;;;4158350;84;28583;-78
2022/05/05 08:47:04;;;;;;;6.87;4.65;;;;;;;;;;4147759;84;28521;-79
2022/05/05 08:53:06;;;;;;;10.53;4.08;;;;;;;;;;4136842;84;28523;-77
2022/05/05 08:59:08;;;;;;;5.87;4.53;;;;;;;;;;4127658;85;28570;-78
2022/05/05 09:05:09;;;;;;;5.25;4.08;;;;;;;;;;4130034;85;28514;-79
2022/05/05 09:11:13;;;;;;;5.75;4.15;;;;;;;;;;4115219;84;28556;-77
2022/05/05 09:17:15;;;;;;;7.05;4.28;;;;;;;;;;4114059;84;28517;-78
2022/05/05 09:23:34;;;;;;;5.28;4.00;;;;;;;;;;4130401;85;28585;-79
2022/05/05 09:29:35;;;;;;;5.00;4.17;;;;;;;;;;4120815;84;28601;-78
2022/05/05 09:35:36;;;;;;;7.15;3.90;;;;;;;;;;3920088;89;28588;-79
2022/05/05 09:41:44;;;;;;;5.35;3.62;;;;;;;;;;4131816;84;28569;-79
2022/05/05 09:47:46;;;;;;;4.05;3.10;;;;;;;;;;4133282;84;28558;-79
2022/05/05 10:00:19;;;;;;;6.67;3.95;;;;;;;;;;4065621;85;28633;-79
2022/05/05 10:06:19;;;;;;;5.55;3.95;;;;;;;;;;4042930;86;28593;-78
2022/05/05 10:12:21;;;;;;;6.87;5.07;;;;;;;;;;4077743;85;28559;-77
2022/05/05 10:18:22;;;;;;;7.47;4.80;;;;;;;;;;4117692;84;28534;-78
2022/05/05 10:24:28;;;;;;;5.58;4.35;;;;;;;;;;4118644;84;28576;-78
2022/05/05 10:30:36;;;;;;;4.28;3.60;;;;;;;;;;4112930;84;28558;-77
2022/05/05 10:36:37;;;;;;;5.62;3.30;;;;;;;;;;4118501;85;28526;-78
2022/05/05 10:42:40;;;;;;;4.10;3.00;;;;;;;;;;4108052;84;28521;-77
2022/05/05 10:48:44;;;;;;;4.07;3.67;;;;;;;;;;4112991;84;28578;-78
2022/05/05 10:54:46;;;;;;;4.40;3.00;;;;;;;;;;4131236;84;28550;-78
2022/05/05 11:00:49;;;;;;;3.60;3.00;;;;;;;;;;4146925;84;28615;-79
2022/05/05 11:06:53;;;;;;;4.12;2.77;;;;;;;;;;4130564;84;28613;-78
2022/05/05 11:12:54;;;;;;;3.60;3.22;;;;;;;;;;4143103;84;28608;-78
2022/05/05 11:25:10;;;;;;;4.90;3.30;;;;;;;;;;4083655;84;28504;-78
2022/05/05 11:31:24;;;;;;;4.70;3.02;;;;;;;;;;4139610;84;28569;-80
2022/05/05 11:37:26;;;;;;;4.33;3.40;;;;;;;;;;4138172;84;28552;-78
2022/05/05 11:49:51;;;;;;;6.65;3.80;;;;;;;;;;4146458;84;28545;-78
2022/05/05 11:55:52;;;;;;;5.30;3.05;;;;;;;;;;4131771;84;28607;-78
2022/05/05 12:01:54;;;;;;;3.92;2.90;;;;;;;;;;4141423;84;28490;-78
2022/05/05 12:07:57;;;;;;;3.67;2.65;;;;;;;;;;4146146;84;28624;-78
2022/05/05 12:14:03;;;;;;;6.05;3.00;;;;;;;;;;4147375;84;28522;-77
2022/05/05 12:20:06;;;;;;;4.22;3.00;;;;;;;;;;4128669;84;28480;-78
2022/05/05 12:26:08;;;;;;;4.03;3.05;;;;;;;;;;4120932;84;28557;-78
2022/05/05 12:32:10;;;;;;;4.12;2.95;;;;;;;;;;4109186;84;28518;-78
2022/05/05 12:38:13;;;;;;;4.97;2.70;;;;;;;;;;4146529;84;28550;-78
2022/05/05 12:44:14;;;;;;;4.45;2.75;;;;;;;;;;4143044;84;28534;-78
2022/05/05 12:50:34;;;;;;;5.35;3.22;;;;;;;;;;4146122;84;28483;-78
2022/05/05 13:02:56;;;;;;;5.37;3.58;;;;;;;;;;4102711;84;28554;-78
2022/05/05 13:08:57;;;;;;;4.53;2.92;;;;;;;;;;4108575;84;28542;-78
2022/05/05 13:14:58;;;;;;;3.02;2.65;;;;;;;;;;4093779;84;28596;-77
2022/05/05 13:20:59;;;;;;;3.72;2.42;;;;;;;;;;4065790;84;28517;-78
2022/05/05 13:27:01;;;;;;;3.40;2.67;;;;;;;;;;4109516;84;28531;-78
2022/05/05 13:33:07;;;;;;;3.17;2.75;;;;;;;;;;4045166;84;28533;-78
2022/05/05 13:39:10;;;;;;;3.87;3.02;;;;;;;;;;4123515;85;28563;-78
2022/05/05 13:45:12;;;;;;;3.87;2.92;;;;;;;;;;4128894;84;28566;-79
2022/05/05 13:51:13;;;;;;;4.47;2.80;;;;;;;;;;4119717;85;28546;-78
2022/05/05 13:57:14;;;;;;;3.33;2.80;;;;;;;;;;4061953;85;28506;-78
2022/05/05 14:03:16;;;;;;;3.62;3.17;;;;;;;;;;4064269;86;28522;-78
2022/05/05 14:15:38;;;;;;;4.33;3.22;;;;;;;;;;4064938;86;28498;-77
2022/05/05 14:21:40;;;;;;;3.67;2.72;;;;;;;;;;4065171;86;28550;-78
2022/05/05 14:27:42;;;;;;;5.33;2.83;;;;;;;;;;4066270;86;28561;-77
2022/05/05 14:33:44;;;;;;;3.08;2.72;;;;;;;;;;4063774;86;28511;-77
2022/05/05 14:39:44;;;;;;;3.17;2.65;;;;;;;;;;4063971;86;28541;-77
2022/05/05 14:45:47;;;;;;;2.87;2.47;;;;;;;;;;4076185;86;28594;-77
2022/05/05 14:51:48;;;;;;;3.85;2.85;;;;;;;;;;4067186;86;28486;-78
2022/05/05 14:57:49;;;;;;;2.60;2.40;;;;;;;;;;4117183;84;28476;-79
2022/05/05 15:03:50;;;;;;;3.37;2.50;;;;;;;;;;4105066;84;28549;-78
2022/05/05 15:09:51;;;;;;;3.35;2.40;;;;;;;;;;4122572;84;28515;-77
2022/05/05 15:15:52;;;;;;;3.85;2.50;;;;;;;;;;4076139;84;28561;-77
2022/05/05 15:21:58;;;;;;;3.77;2.20;;;;;;;;;;4121462;84;28570;-80
2022/05/05 15:27:59;;;;;;;3.90;2.20;;;;;;;;;;4097836;84;28515;-78
2022/05/05 15:34:00;;;;;;;2.87;1.80;;;;;;;;;;4077378;85;28536;-77
2022/05/05 15:40:02;;;;;;;2.85;1.90;;;;;;;;;;4070344;85;29144;-80
2022/05/05 15:46:03;;;;;;;4.70;2.00;;;;;;;;;;4099995;85;28577;-76
2022/05/05 15:52:05;;;;;;;3.42;2.08;;;;;;;;;;4104102;85;28506;-76
2022/05/05 15:58:06;;;;;;;2.47;2.20;;;;;;;;;;4115644;84;28664;-76
2022/05/05 16:04:07;;;;;;;3.83;1.92;;;;;;;;;;4133727;85;28565;-77
2022/05/05 16:10:08;;;;;;;3.70;2.20;;;;;;;;;;4135687;84;28525;-77
2022/05/05 16:16:11;;;;;;;2.85;2.00;;;;;;;;;;4135135;84;28564;-77
2022/05/05 16:22:12;;;;;;;4.20;2.35;;;;;;;;;;4130718;85;28524;-76
2022/05/05 16:34:34;;;;;;;3.52;2.05;;;;;;;;;;4143343;84;28515;-76
2022/05/05 16:40:53;;;;;;;;;;;;;;;;;;;;;
2022/05/05 16:46:47;;;;;;;4.20;2.20;;;;;;;;;;4147462;85;28590;-77
2022/05/05 16:52:50;;;;;;;4.05;2.10;;;;;;;;;;4109259;85;28546;-78
2022/05/05 16:58:54;;;;;;;5.33;2.22;;;;;;;;;;4118072;85;28576;-78
2022/05/05 17:11:47;;;;;;;5.08;3.08;;;;;;;;;;3858253;91;28626;-78
2022/05/05 17:17:49;;;;;;;3.83;2.95;;;;;;;;;;4115322;85;28555;-76
2022/05/05 17:23:51;;;;;;;4.40;2.83;;;;;;;;;;4124091;85;28488;-77
2022/05/05 17:29:52;;;;;;;3.98;2.95;;;;;;;;;;4120675;86;28524;-76
2022/05/05 17:35:53;;;;;;;4.55;3.10;;;;;;;;;;4100227;86;28454;-75
2022/05/05 17:41:54;;;;;;;3.98;2.67;;;;;;;;;;4105645;85;28495;-76
2022/05/05 17:54:16;;;;;;;7.78;3.10;;;;;;;;;;4121766;84;28554;-79
2022/05/05 18:00:20;;;;;;;6.08;3.12;;;;;;;;;;4145973;84;28564;-76
2022/05/05 18:06:31;;;;;;;4.95;3.45;;;;;;;;;;4137288;84;28544;-76
2022/05/05 18:12:28;;;;;;;7.47;2.45;;;;;;;;;;4131173;84;28545;-78
2022/05/05 18:18:35;;;;;;;3.02;2.15;;;;;;;;;;4098695;84;28569;-78
2022/05/05 18:25:11;;;;;;;4.58;2.00;;;;;;;;;;4142950;84;28547;-81
2022/05/05 18:38:32;;;;;;;5.20;2.00;;;;;;;;;;4107880;84;28533;-80
2022/05/05 18:44:56;;;;;;;3.25;1.95;;;;;;;;;;4130373;84;28557;-81
2022/05/05 18:50:56;;;;;;;5.05;2.05;;;;;;;;;;4130078;84;28524;-85
2022/05/05 18:57:00;;;;;;;4.53;2.05;;;;;;;;;;4129092;84;28584;-84
2022/05/05 19:03:01;;;;;;;4.50;2.30;;;;;;;;;;4128752;84;28480;-84
2022/05/05 19:09:06;;;;;;;3.25;2.37;;;;;;;;;;4059162;86;28592;-81
2022/05/05 19:15:15;;;;;;;4.08;2.30;;;;;;;;;;3979766;87;28489;-82
2022/05/05 19:21:25;;;;;;;;;;;;;;;;;;3977689;87;28646;-83
2022/05/05 19:27:33;;;;;;;4.37;2.50;;;;;;;;;;4040292;86;20941;-83
2022/05/05 19:33:43;;;;;;;6.80;2.83;;;;;;;;;;4060226;86;28620;-85
2022/05/05 19:40:02;;;;;;;6.15;3.40;;;;;;;;;;4058986;85;28584;-84
2022/05/05 19:52:34;;;;;;;9.03;4.37;;;;;;;;;;3923400;87;28541;-85
2022/05/05 20:11:15;;;;;;;8.33;4.78;;;;;;;;;;4145339;84;28531;-86
2022/05/05 20:17:28;;;;;;;8.63;5.12;;;;;;;;;;4143897;84;28511;-85
2022/05/05 20:23:29;;;;;;;8.35;5.20;;;;;;;;;;4133856;84;28539;-86
2022/05/05 20:29:35;;;;;;;8.83;5.12;;;;;;;;;;4138245;84;28515;-83
2022/05/05 20:35:36;;;;;;;5.87;4.15;;;;;;;;;;4144901;84;28641;-87
2022/05/05 20:41:42;;;;;;;9.08;5.40;;;;;;;;;;4141476;84;28535;-86
2022/05/05 20:47:40;;;;;;;10.08;5.30;;;;;;;;;;4143884;84;28555;-86
2022/05/05 20:53:41;;;;;;;10.32;5.40;;;;;;;;;;4135890;84;28595;-87
2022/05/05 20:59:44;;;;;;;7.22;4.47;;;;;;;;;;4122694;84;28601;-86
2022/05/05 21:05:45;;;;;;;6.92;4.20;;;;;;;;;;4129950;84;28539;-83
2022/05/05 21:11:48;;;;;;;6.37;4.33;;;;;;;;;;4131039;84;28584;-86
2022/05/05 21:17:48;;;;;;;6.65;4.53;;;;;;;;;;4134546;84;28521;-84
2022/05/05 21:30:09;;;;;;;9.10;4.28;;;;;;;;;;4126258;85;28538;-85
2022/05/05 21:36:10;;;;;;;7.92;4.30;;;;;;;;;;4124641;84;28485;-84
2022/05/05 21:42:11;;;;;;;8.43;4.30;;;;;;;;;;4126761;85;28520;-85
2022/05/05 21:48:12;;;;;;;8.10;4.60;;;;;;;;;;4122833;84;28560;-83
2022/05/05 21:54:13;;;;;;;7.55;4.85;;;;;;;;;;4130827;85;28575;-85
2022/05/05 22:00:16;;;;;;;6.42;5.20;;;;;;;;;;4108833;85;28533;-85
2022/05/05 22:06:17;;;;;;;7.10;4.65;;;;;;;;;;4103169;84;28557;-85
2022/05/05 22:12:18;;;;;;;7.15;4.90;;;;;;;;;;4113556;86;28550;-85
2022/05/05 22:18:19;;;;;;;9.88;5.87;;;;;;;;;;4073384;86;28565;-84
2022/05/05 22:24:20;;;;;;;8.28;5.72;;;;;;;;;;4100103;84;28605;-85
2022/05/05 22:30:21;;;;;;;13.93;6.47;;;;;;;;;;4100605;84;28540;-85
2022/05/05 22:36:22;;;;;;;10.60;6.03;;;;;;;;;;4101817;85;28577;-84
2022/05/05 22:42:23;;;;;;;7.70;5.60;;;;;;;;;;4108490;84;28506;-84
2022/05/05 22:54:45;;;;;;;9.50;6.62;;;;;;;;;;4058365;84;28535;-85
2022/05/05 23:00:47;;;;;;;7.92;6.03;;;;;;;;;;4052365;86;28542;-85
2022/05/05 23:06:48;;;;;;;9.73;6.42;;;;;;;;;;4056076;85;28554;-86
2022/05/05 23:12:48;;;;;;;9.08;6.75;;;;;;;;;;4075451;86;28549;-86
2022/05/05 23:18:49;;;;;;;11.12;7.37;;;;;;;;;;4070491;85;28587;-86
2022/05/05 23:24:50;;;;;;;12.50;7.60;;;;;;;;;;4067320;85;28575;-85
2022/05/05 23:30:51;;;;;;;9.83;6.85;;;;;;;;;;4078752;86;28572;-86
2022/05/05 23:36:52;;;;;;;10.20;7.17;;;;;;;;;;4078104;86;28558;-86
2022/05/05 23:42:53;;;;;;;10.80;7.97;;;;;;;;;;4069319;85;28562;-87
2022/05/05 23:48:53;;;;;;;12.10;8.50;;;;;;;;;;4074636;86;28459;-86
2022/05/05 23:54:55;;;;;;;10.98;7.75;;;;;;;;;;4079992;85;28581;-86
